Main page
METAR-TAF:

METAR-TAF

Airports :

Aberdeen Airport

Aberdeen, Scotland

latitude: 57-12N, longitude: 002-13W, elevation: 65 m

Current weather observation

The report was made 15 minutes ago, at 07:50 UTC
Wind 2 kt from variable directions
Temperature -1°C
Humidity 93%
Pressure 1014 hPa
Visibility 10 km or more

METAR: EGPD 200750Z AUTO VRB02KT 9999 NCD M01/M02 Q1014 NOSIG

Time: 08:05 (08:05 UTC)

Forecast

The report was made 3 hours and 12 minutes ago, at 04:53 UTC
Forecast valid from 20 at 06 UTC to 21 at 06 UTC
Wind 3 kt from variable directions
Visibility 10 km or more
Scattered clouds at a height of 2000 ft
Becoming
from 20 at 09 UTC to 20 at 12 UTC
Wind 10 kt from the West
Probability 30% :
Temporary
from 20 at 11 UTC to 20 at 13 UTC
Visibility: 6000 m
Broken clouds at a height of 800 ft
rain

TAF: EGPD 200453Z 2006/2106 VRB03KT 9999 SCT020 BECMG 2009/2012 27010KT PROB30 TEMPO 2011/2013 6000 RA BKN008

Weather observations and forecasts of more than 4000 airports (METAR and TAF reports).

The available stations are represented by yellow and red dots on the map.

Hover mouse over dot to see the name of the station.

Then click to see weather observations and forecasts.

To change the map : click on the green buttons with a black cross to zoom in, on the green button with a dash to zoom out, or on the green arrows for adjacent maps.


METAR-TAF: